Atlantic - Newfoundland: Past 24 Hour Conditions

 

Daniel's Harbour

03:30 AM NDT 24 July 2014
This table is a summary of hourly weather conditions for the past 24 hours.
Date / Time
(NDT)
Wind(knots) Conditions Visibility(km) Pressure(kPa) Air tempC) Relative humidity(%) Dew pointC) Humidex
24 July 2014
3:30 SSW 19 gust 31 N/A 10 100.0 19 81 16 *
2:30 SSW 23 gust 32 N/A 11 100.0 20 78 16 *
1:30 SSW 22 gust 29 N/A 15 100.0 21 76 16 25
0:30 SSW 20 gust 30 N/A 15 100.0 21 76 16 25
23 July 2014
23:30 SSW 20 gust 27 N/A 15 100.0 21 74 16 26
22:30 SSW 23 gust 32 N/A 15 100.0 22 73 17 27
21:30 SSW 24 gust 35 N/A 15 100.1 22 71 17 27
20:30 SSW 24 gust 32 N/A 15 100.1 21 74 16 26
19:30 SSW 19 gust 28 N/A 15 100.1 20 76 16 *
18:30 SSW 22 gust 31 N/A 15 100.1 21 72 16 26
17:30 SSW 20 gust 27 N/A 15 100.2 21 74 16 26
16:30 SSW 22 gust 28 N/A 15 100.3 20 75 16 25
15:30 SSW 21 gust 31 N/A 15 100.3 21 76 16 26
14:30 SSW 18 gust 27 N/A 15 100.3 21 77 16 25
13:30 SSW 20 gust 28 N/A 15 100.3 21 77 17 26
12:30 SSW 21 gust 29 N/A 13 100.4 20 78 16 25
11:30 SSW 16 gust 22 N/A 13 100.4 20 80 16 *
10:30 SSW 18 gust 25 N/A 13 100.5 19 82 16 *
9:30 SSW 18 gust 24 N/A 13 100.5 19 81 16 *
8:30 SSW 15 N/A 13 100.5 18 84 15 *
7:30 SSW 15 gust 24 N/A 13 100.5 18 84 15 *
6:30 SSW 16 gust 24 N/A 15 100.5 18 84 15 *
5:30 SSW 15 gust 25 N/A 15 100.5 18 83 15 *
4:30 SSW 15 gust 21 N/A 15 100.5 18 82 15 *
3:30 SSW 19 gust 24 N/A 15 100.5 18 83 15 *
 
Map of Atlantic - Newfoundland marine weather areas Southwestern Grand Banks - 44138 Banquereau - 44139 Tail of the Bank - 44140 Nickerson Bank - 44251 Northeast Burgeo Bank - 44255 Blanc-Sablon Airport Cap Whittle Chevery Natashquan Airport Heath Point Miscou Island Grand Étang Ingonish Beach North Mountain St.Paul Island J.A. Douglas McCurdy Sydney Airport Charlottetown Airport East Point North Cape Argentia Bonavista Burgeo Cape Race Corner Brook Daniel's Harbour Englee Ferolle Point La Scie Port aux Basques Rocky Harbour Sagona Island St. Anthony Airport St. John's Int'l Airport St. Lawrence Stephenville Airport Twillingate Winterland Wreckhouse Cartwright Airport Mary's Harbour Grates Cove Pool's Island Marticot Island Long Pond Îles de la Madeleine Airport
Legend: buoyBuoy land stationLand Station